Pensacola Regional Airport
KPNS : now visible

Airfield :











YOU CAN JOIN US ON...

 
LOGIN :

Register | Disclaimer

   EN    FR    IT 

 









Legend :    VFR   Marginal VFR   IFR   Intensive IFR   Very Intensive IFR
Visi :
Ceiling :
>= 8 km
>= 3000ft
5 to 8 km
1000 to 3000 ft
1500m to 5 km
500 to 1000 ft
800 to 1500m
200 to 500 ft
< 800m
< 200 ft
Symbols :   Thunderstorms  Fog  Heavy snow  Heavy precipitations  Wind > 20 kt






- Airport Elevation : 121 ft
- IATA code : PNS


KPNS - Pensacola Regional

CURRENT METAR :
  • 010153Z 34018G27KT 10SM FEW032 17/11 A2986 RMK AO2 PK WND 34028/0113 SLP112 T01720106

EXPIRED METARs :
  • 010053Z 33015G26KT 10SM CLR 19/09 A2982 RMK AO2 PK WND 33028/0041 SLP099 T01890094
  • 312353Z 33018G26KT 10SM CLR 22/11 A2978 RMK AO2 PK WND 32030/2300 SLP085 60000 T02170106 10289 20217 53022

TAF KPNS
Valid from the 01 at 00:00 until the 02 at 00:00 UTC


312325Z 0100/0124 32015G25KT P6SM FEW250
FM010300 35010G17KT P6SM SKC
FM012000 35010KT P6SM SKC



MET'MAP, your aeronautical weather chart ! - Copyright ORBIFLY December 2007 - Disclaimer

ORBIFLY MET'MAP TEAM :

Programming & Development : Alexandra Zaïnal
Concept & original design : Baudouin d'Aumeries
Assistance for programming : Marc-Olivier Méhu
Technical & hardware support : Manuel Goepfert

Contact : metmap@orbifly.com




SOURCES & CREDITS :

   NOAA       Earth
Advisory